Time;durP1;ratioP1;P1;durP2;ratioP2;P2;SDS_P1;SDS_P2;PMS_P1;PMS_P2;Temp;Humidity;BMP_temperature;BMP_pressure;BME280_temperature;BME280_humidity;BME280_pressure;Samples;Min_cycle;Max_cycle;Signal;HPM_P1;HPM_P2
2023/05/21 00:01:52;;;;;;;9.18;7.25;;;;;;;;;;5056609;28;20049;-79
2023/05/21 00:04:19;;;;;;;9.38;7.20;;;;;;;;;;5056348;28;20492;-79
2023/05/21 00:06:47;;;;;;;10.55;7.82;;;;;;;;;;5055264;28;20053;-80
2023/05/21 00:09:13;;;;;;;8.82;6.78;;;;;;;;;;5056996;28;20045;-79
2023/05/21 00:11:40;;;;;;;9.27;7.10;;;;;;;;;;5055531;28;20049;-79
2023/05/21 00:14:06;;;;;;;10.77;7.65;;;;;;;;;;5055963;28;20114;-80
2023/05/21 00:16:33;;;;;;;10.00;7.70;;;;;;;;;;5056272;28;20528;-80
2023/05/21 00:18:59;;;;;;;9.10;7.22;;;;;;;;;;5055896;28;20041;-80
2023/05/21 00:21:25;;;;;;;9.65;6.82;;;;;;;;;;5055683;28;20044;-80
2023/05/21 00:23:55;;;;;;;9.00;6.93;;;;;;;;;;5056335;28;20052;-79
2023/05/21 00:26:22;;;;;;;11.02;7.47;;;;;;;;;;5056273;28;20132;-80
2023/05/21 00:28:49;;;;;;;9.88;7.05;;;;;;;;;;5055754;28;20106;-79
2023/05/21 00:31:16;;;;;;;12.43;7.63;;;;;;;;;;5054761;28;20053;-79
2023/05/21 00:33:42;;;;;;;9.57;7.40;;;;;;;;;;5055712;28;20543;-80
2023/05/21 00:36:13;;;;;;;13.23;7.57;;;;;;;;;;5055216;28;20525;-79
2023/05/21 00:38:42;;;;;;;9.05;7.20;;;;;;;;;;5055597;28;20048;-80
2023/05/21 00:41:10;;;;;;;11.90;7.43;;;;;;;;;;5055108;28;20132;-79
2023/05/21 00:43:40;;;;;;;12.13;7.22;;;;;;;;;;5055555;28;20048;-80
2023/05/21 00:46:07;;;;;;;11.55;7.80;;;;;;;;;;5055276;28;20045;-79
2023/05/21 00:48:34;;;;;;;8.75;7.45;;;;;;;;;;5054628;28;20496;-80
2023/05/21 00:51:01;;;;;;;12.52;7.90;;;;;;;;;;5055738;28;20052;-80
2023/05/21 00:53:28;;;;;;;11.68;7.85;;;;;;;;;;5054952;28;20397;-80
2023/05/21 00:55:55;;;;;;;11.13;7.93;;;;;;;;;;5055474;28;20053;-80
2023/05/21 00:58:23;;;;;;;12.32;8.30;;;;;;;;;;5055362;28;20094;-80
2023/05/21 01:00:54;;;;;;;10.65;8.05;;;;;;;;;;5055094;28;20053;-79
2023/05/21 01:03:22;;;;;;;10.98;7.75;;;;;;;;;;5054622;28;20057;-80
2023/05/21 01:05:52;;;;;;;11.15;7.90;;;;;;;;;;5054836;28;20057;-80
2023/05/21 01:08:19;;;;;;;11.05;8.25;;;;;;;;;;5053637;28;20044;-80
2023/05/21 01:10:46;;;;;;;10.48;8.10;;;;;;;;;;5057491;28;20091;-80
2023/05/21 01:13:13;;;;;;;12.77;8.48;;;;;;;;;;5059325;28;20511;-80
2023/05/21 01:15:42;;;;;;;10.05;8.23;;;;;;;;;;5059690;28;20098;-80
2023/05/21 01:18:08;;;;;;;11.45;8.30;;;;;;;;;;5059153;28;20048;-79
2023/05/21 01:20:36;;;;;;;11.27;8.18;;;;;;;;;;5059410;28;20056;-79
2023/05/21 01:23:05;;;;;;;14.13;9.32;;;;;;;;;;5059472;28;20048;-79
2023/05/21 01:25:31;;;;;;;10.65;8.00;;;;;;;;;;5059349;28;20045;-79
2023/05/21 01:27:58;;;;;;;13.15;8.10;;;;;;;;;;5059443;28;20045;-80
2023/05/21 01:30:25;;;;;;;14.20;9.32;;;;;;;;;;5058953;28;20385;-80
2023/05/21 01:33:00;;;;;;;11.82;8.55;;;;;;;;;;5059482;28;20048;-80
2023/05/21 01:35:30;;;;;;;13.25;8.73;;;;;;;;;;5058967;28;20052;-79
2023/05/21 01:38:03;;;;;;;11.27;8.52;;;;;;;;;;5059517;28;20048;-80
2023/05/21 01:40:34;;;;;;;12.07;9.07;;;;;;;;;;5058946;28;20456;-79
2023/05/21 01:43:03;;;;;;;12.75;8.95;;;;;;;;;;5059304;28;20140;-80
2023/05/21 01:45:31;;;;;;;11.23;8.18;;;;;;;;;;5059618;28;20061;-80
2023/05/21 01:47:58;;;;;;;10.90;8.77;;;;;;;;;;5059407;28;20072;-79
2023/05/21 01:50:26;;;;;;;11.65;8.98;;;;;;;;;;5073490;22;20409;-69
2023/05/21 01:52:55;;;;;;;11.68;8.25;;;;;;;;;;5053041;28;20055;-69
2023/05/21 01:55:24;;;;;;;12.93;9.38;;;;;;;;;;5052689;28;20064;-69
2023/05/21 01:57:52;;;;;;;13.65;8.85;;;;;;;;;;5052979;28;20095;-68
2023/05/21 02:00:19;;;;;;;12.05;8.77;;;;;;;;;;5052330;28;20052;-69
2023/05/21 02:02:46;;;;;;;14.32;9.30;;;;;;;;;;5053099;28;20402;-68
2023/05/21 02:05:13;;;;;;;11.70;8.77;;;;;;;;;;5052788;28;20482;-69
2023/05/21 02:07:39;;;;;;;12.80;8.77;;;;;;;;;;5052655;28;20075;-69
2023/05/21 02:10:07;;;;;;;13.05;9.25;;;;;;;;;;5053030;28;20044;-69
2023/05/21 02:12:34;;;;;;;12.00;8.93;;;;;;;;;;5052836;28;20053;-69
2023/05/21 02:15:03;;;;;;;11.75;9.10;;;;;;;;;;5053125;28;20410;-69
2023/05/21 02:17:32;;;;;;;15.63;9.40;;;;;;;;;;5052444;28;20421;-69
2023/05/21 02:20:06;;;;;;;12.40;9.32;;;;;;;;;;5052012;28;20410;-69
2023/05/21 02:22:33;;;;;;;13.80;9.68;;;;;;;;;;5051819;28;20048;-69
2023/05/21 02:25:00;;;;;;;13.85;9.60;;;;;;;;;;5052684;28;20056;-70
2023/05/21 02:27:30;;;;;;;12.30;9.10;;;;;;;;;;5052073;28;20486;-68
2023/05/21 02:29:57;;;;;;;13.85;9.65;;;;;;;;;;5052044;28;20053;-69
2023/05/21 02:32:24;;;;;;;13.75;9.63;;;;;;;;;;5052226;28;20049;-71
2023/05/21 02:34:51;;;;;;;12.90;9.43;;;;;;;;;;5052456;28;20052;-69
2023/05/21 02:37:19;;;;;;;14.18;10.15;;;;;;;;;;5052025;28;20057;-70
2023/05/21 02:39:45;;;;;;;14.18;9.80;;;;;;;;;;5052506;28;20646;-68
2023/05/21 02:42:12;;;;;;;14.75;9.60;;;;;;;;;;5051941;28;20049;-69
2023/05/21 02:44:39;;;;;;;13.55;10.43;;;;;;;;;;5052132;28;20069;-69
2023/05/21 02:47:07;;;;;;;15.05;10.27;;;;;;;;;;5051943;28;20053;-69
2023/05/21 02:49:35;;;;;;;13.40;10.40;;;;;;;;;;5051302;28;20045;-69
2023/05/21 02:52:01;;;;;;;12.38;9.50;;;;;;;;;;5052416;28;20052;-69
2023/05/21 02:54:28;;;;;;;14.40;9.95;;;;;;;;;;5051748;28;20045;-70
2023/05/21 02:56:54;;;;;;;14.75;9.93;;;;;;;;;;5052192;28;20406;-70
2023/05/21 02:59:21;;;;;;;13.15;9.77;;;;;;;;;;5051450;28;20049;-69
2023/05/21 03:01:47;;;;;;;16.40;10.43;;;;;;;;;;5051706;28;20061;-69
2023/05/21 03:04:14;;;;;;;16.45;10.52;;;;;;;;;;5051523;28;20135;-69
2023/05/21 03:06:41;;;;;;;15.50;10.32;;;;;;;;;;5051778;28;20041;-69
2023/05/21 03:09:08;;;;;;;14.65;10.23;;;;;;;;;;5051616;28;20499;-69
2023/05/21 03:11:35;;;;;;;15.18;10.65;;;;;;;;;;5051890;28;20091;-69
2023/05/21 03:14:01;;;;;;;15.07;10.45;;;;;;;;;;5051497;28;20045;-69
2023/05/21 03:16:28;;;;;;;17.85;11.02;;;;;;;;;;5051540;28;20045;-70
2023/05/21 03:18:55;;;;;;;14.93;10.23;;;;;;;;;;5051618;28;20486;-69
2023/05/21 03:21:21;;;;;;;15.45;10.13;;;;;;;;;;5051273;28;20045;-69
2023/05/21 03:23:50;;;;;;;14.82;10.13;;;;;;;;;;5052084;28;20122;-70
2023/05/21 03:26:16;;;;;;;14.98;10.25;;;;;;;;;;5051098;28;20090;-70
2023/05/21 03:28:43;;;;;;;16.55;11.15;;;;;;;;;;5051292;28;20045;-69
2023/05/21 03:31:09;;;;;;;16.60;10.40;;;;;;;;;;5050646;28;20052;-70
2023/05/21 03:33:36;;;;;;;13.45;10.15;;;;;;;;;;5050374;28;20189;-70
2023/05/21 03:36:03;;;;;;;14.40;9.75;;;;;;;;;;5050961;28;20053;-71
2023/05/21 03:38:29;;;;;;;15.77;10.52;;;;;;;;;;5051294;28;20049;-69
2023/05/21 03:40:57;;;;;;;13.40;10.00;;;;;;;;;;5050797;28;20045;-69
2023/05/21 03:43:23;;;;;;;15.55;10.70;;;;;;;;;;5051087;28;20053;-69
2023/05/21 03:45:50;;;;;;;13.55;10.20;;;;;;;;;;5051120;28;20510;-70
2023/05/21 03:48:17;;;;;;;14.45;10.05;;;;;;;;;;5051389;28;20668;-70
2023/05/21 03:50:44;;;;;;;14.45;10.50;;;;;;;;;;5050168;28;20091;-69
2023/05/21 03:53:11;;;;;;;15.55;9.98;;;;;;;;;;5051401;28;20051;-69
2023/05/21 03:55:37;;;;;;;15.10;9.98;;;;;;;;;;5051298;28;20045;-69
2023/05/21 03:58:05;;;;;;;17.00;10.45;;;;;;;;;;5050527;28;20045;-69
2023/05/21 04:00:33;;;;;;;16.70;10.80;;;;;;;;;;5050543;28;20056;-69
2023/05/21 04:02:59;;;;;;;14.93;10.93;;;;;;;;;;5050278;28;20060;-68
2023/05/21 04:05:26;;;;;;;14.30;10.05;;;;;;;;;;5050494;28;20063;-68
2023/05/21 04:07:53;;;;;;;15.70;10.13;;;;;;;;;;5050314;28;20490;-69
2023/05/21 04:10:19;;;;;;;15.52;10.43;;;;;;;;;;5050066;28;20052;-69
2023/05/21 04:12:47;;;;;;;15.82;11.00;;;;;;;;;;5050350;28;20084;-70
2023/05/21 04:15:17;;;;;;;13.57;10.15;;;;;;;;;;5050353;28;20041;-69
2023/05/21 04:17:44;;;;;;;14.20;10.00;;;;;;;;;;5050408;28;20069;-70
2023/05/21 04:20:12;;;;;;;14.00;10.52;;;;;;;;;;5050036;28;20053;-69
2023/05/21 04:22:39;;;;;;;17.02;10.35;;;;;;;;;;5050034;28;20049;-69
2023/05/21 04:25:05;;;;;;;14.98;10.77;;;;;;;;;;5050345;28;20053;-69
2023/05/21 04:27:33;;;;;;;14.52;10.52;;;;;;;;;;5050368;28;20383;-69
2023/05/21 04:29:59;;;;;;;14.63;10.60;;;;;;;;;;5050443;28;20049;-69
2023/05/21 04:32:29;;;;;;;15.95;9.98;;;;;;;;;;5050338;28;20060;-69
2023/05/21 04:34:56;;;;;;;12.05;9.38;;;;;;;;;;5050080;28;20487;-70
2023/05/21 04:37:23;;;;;;;14.90;9.90;;;;;;;;;;5049897;28;20409;-68
2023/05/21 04:39:50;;;;;;;15.00;10.60;;;;;;;;;;5049760;28;20505;-69
2023/05/21 04:42:18;;;;;;;15.90;10.35;;;;;;;;;;5050427;28;20404;-69
2023/05/21 04:44:44;;;;;;;16.15;10.40;;;;;;;;;;5050045;28;20045;-69
2023/05/21 04:47:13;;;;;;;14.10;9.98;;;;;;;;;;5049962;28;20041;-70
2023/05/21 04:49:41;;;;;;;16.50;10.38;;;;;;;;;;5049080;28;20055;-70
2023/05/21 04:52:08;;;;;;;14.77;9.63;;;;;;;;;;5050308;28;20040;-69
2023/05/21 04:54:35;;;;;;;15.13;10.07;;;;;;;;;;5049569;28;20407;-70
2023/05/21 04:57:01;;;;;;;16.27;9.93;;;;;;;;;;5050151;28;20045;-69
2023/05/21 04:59:28;;;;;;;13.25;10.02;;;;;;;;;;5049495;28;20045;-70
2023/05/21 05:01:54;;;;;;;15.23;10.43;;;;;;;;;;5049727;28;20056;-70
2023/05/21 05:04:21;;;;;;;15.82;10.27;;;;;;;;;;5049196;28;20119;-70
2023/05/21 05:06:50;;;;;;;15.10;10.45;;;;;;;;;;5049625;28;20406;-69
2023/05/21 05:09:17;;;;;;;17.02;10.43;;;;;;;;;;5050294;28;20049;-70
2023/05/21 05:11:43;;;;;;;13.80;10.10;;;;;;;;;;5049490;28;20045;-69
2023/05/21 05:14:10;;;;;;;14.68;10.07;;;;;;;;;;5049958;28;20339;-69
2023/05/21 05:16:36;;;;;;;15.55;10.52;;;;;;;;;;5049328;28;20045;-69
2023/05/21 05:19:03;;;;;;;15.07;10.32;;;;;;;;;;5049778;28;20045;-70
2023/05/21 05:21:30;;;;;;;13.40;10.23;;;;;;;;;;5049206;28;20049;-69
2023/05/21 05:23:58;;;;;;;15.40;10.57;;;;;;;;;;5049957;28;20041;-69
2023/05/21 05:26:25;;;;;;;13.85;9.38;;;;;;;;;;5049565;28;20356;-70
2023/05/21 05:28:51;;;;;;;12.80;9.80;;;;;;;;;;5049995;28;20129;-70
2023/05/21 05:31:18;;;;;;;13.70;9.68;;;;;;;;;;5048959;28;20072;-69
2023/05/21 05:33:44;;;;;;;14.98;10.10;;;;;;;;;;5049737;28;20406;-69
2023/05/21 05:36:11;;;;;;;12.75;9.38;;;;;;;;;;5049682;28;20049;-69
2023/05/21 05:38:38;;;;;;;14.07;9.73;;;;;;;;;;5049879;28;20087;-69
2023/05/21 05:41:06;;;;;;;13.27;9.00;;;;;;;;;;5049281;28;20061;-69
2023/05/21 05:43:33;;;;;;;14.77;9.82;;;;;;;;;;5049730;28;20045;-69
2023/05/21 05:46:00;;;;;;;15.35;10.15;;;;;;;;;;5049585;28;20412;-70
2023/05/21 05:48:26;;;;;;;13.10;9.65;;;;;;;;;;5048947;28;20064;-69
2023/05/21 05:50:53;;;;;;;14.80;10.10;;;;;;;;;;5049173;28;20051;-70
2023/05/21 05:53:20;;;;;;;14.73;10.40;;;;;;;;;;5049104;28;20056;-69
2023/05/21 05:55:46;;;;;;;13.45;9.57;;;;;;;;;;5049793;28;20060;-70
2023/05/21 05:58:15;;;;;;;14.90;10.00;;;;;;;;;;5052575;28;20056;-69
2023/05/21 06:00:41;;;;;;;15.68;9.98;;;;;;;;;;5052689;28;20044;-69
2023/05/21 06:03:08;;;;;;;13.68;9.70;;;;;;;;;;5053030;28;20045;-70
2023/05/21 06:05:34;;;;;;;14.48;9.73;;;;;;;;;;5052975;28;20044;-69
2023/05/21 06:08:01;;;;;;;17.27;10.20;;;;;;;;;;5052921;28;20045;-69
2023/05/21 06:10:27;;;;;;;13.98;9.73;;;;;;;;;;5052755;28;20131;-69
2023/05/21 06:12:54;;;;;;;15.10;10.07;;;;;;;;;;5052720;28;20580;-69
2023/05/21 06:15:22;;;;;;;14.02;9.63;;;;;;;;;;5052436;28;20049;-70
2023/05/21 06:17:48;;;;;;;15.10;10.13;;;;;;;;;;5052718;28;20056;-69
2023/05/21 06:20:16;;;;;;;18.63;11.02;;;;;;;;;;5052567;28;20487;-70
2023/05/21 06:22:42;;;;;;;14.98;9.82;;;;;;;;;;5052886;28;20056;-70
2023/05/21 06:25:09;;;;;;;12.70;9.57;;;;;;;;;;5052530;28;20056;-70
2023/05/21 06:27:37;;;;;;;15.82;10.07;;;;;;;;;;5052666;28;20502;-69
2023/05/21 06:30:04;;;;;;;15.45;10.48;;;;;;;;;;5051993;28;20049;-70
2023/05/21 06:32:32;;;;;;;14.32;9.80;;;;;;;;;;5052889;28;20441;-69
2023/05/21 06:34:59;;;;;;;14.45;9.80;;;;;;;;;;5052387;28;20045;-69
2023/05/21 06:37:25;;;;;;;14.57;10.20;;;;;;;;;;5052615;28;20041;-69
2023/05/21 06:39:52;;;;;;;15.60;10.40;;;;;;;;;;5051785;28;20049;-69
2023/05/21 06:42:18;;;;;;;13.70;9.30;;;;;;;;;;5052385;28;20047;-70
2023/05/21 06:44:45;;;;;;;16.70;10.32;;;;;;;;;;5052474;28;20053;-69
2023/05/21 06:47:11;;;;;;;12.82;9.77;;;;;;;;;;5052295;28;20045;-70
2023/05/21 06:49:39;;;;;;;13.85;9.80;;;;;;;;;;5051413;28;20045;-69
2023/05/21 06:52:06;;;;;;;12.70;9.18;;;;;;;;;;5052690;28;20045;-69
2023/05/21 06:54:33;;;;;;;14.52;9.48;;;;;;;;;;5051840;28;20053;-68
2023/05/21 06:57:00;;;;;;;15.13;9.52;;;;;;;;;;5052288;28;20049;-69
2023/05/21 06:59:26;;;;;;;15.55;9.93;;;;;;;;;;5051978;28;20041;-69
2023/05/21 07:01:53;;;;;;;15.00;9.45;;;;;;;;;;5051503;28;20459;-69
2023/05/21 07:04:20;;;;;;;14.68;10.13;;;;;;;;;;5052169;28;20512;-70
2023/05/21 07:06:47;;;;;;;13.45;9.50;;;;;;;;;;5050894;28;20047;-68
2023/05/21 07:09:14;;;;;;;13.85;9.65;;;;;;;;;;5050929;28;20045;-69
2023/05/21 07:11:41;;;;;;;13.82;9.38;;;;;;;;;;5050708;28;20131;-69
2023/05/21 07:14:08;;;;;;;15.13;9.85;;;;;;;;;;5051493;28;20053;-69
2023/05/21 07:16:35;;;;;;;14.07;9.45;;;;;;;;;;5051014;28;20065;-69
2023/05/21 07:19:01;;;;;;;11.98;9.18;;;;;;;;;;5051620;28;20041;-69
2023/05/21 07:21:28;;;;;;;13.52;10.25;;;;;;;;;;5050733;28;20392;-69
2023/05/21 07:23:56;;;;;;;12.80;9.43;;;;;;;;;;5051431;28;20045;-69
2023/05/21 07:26:23;;;;;;;13.38;9.45;;;;;;;;;;5050611;28;20057;-69
2023/05/21 07:28:49;;;;;;;15.75;9.82;;;;;;;;;;5051441;28;20049;-69
2023/05/21 07:31:16;;;;;;;14.80;10.10;;;;;;;;;;5050970;28;20045;-69
2023/05/21 07:33:42;;;;;;;16.77;8.60;;;;;;;;;;5051056;28;20049;-69
2023/05/21 07:36:09;;;;;;;13.00;9.45;;;;;;;;;;5051156;28;20116;-69
2023/05/21 07:38:35;;;;;;;12.70;9.52;;;;;;;;;;5050709;28;20410;-69
2023/05/21 07:41:03;;;;;;;12.57;8.90;;;;;;;;;;5051120;28;20053;-69
2023/05/21 07:43:31;;;;;;;13.48;9.40;;;;;;;;;;5050865;28;20295;-70
2023/05/21 07:45:57;;;;;;;13.02;9.82;;;;;;;;;;5051415;28;20052;-70
2023/05/21 07:48:24;;;;;;;13.60;9.15;;;;;;;;;;5050883;28;20044;-69
2023/05/21 07:50:51;;;;;;;16.70;9.60;;;;;;;;;;5063247;22;20502;-69
2023/05/21 07:53:18;;;;;;;11.88;9.00;;;;;;;;;;5050139;28;20052;-69
2023/05/21 07:55:46;;;;;;;12.02;9.02;;;;;;;;;;5050629;28;20072;-68
2023/05/21 07:58:15;;;;;;;13.85;9.07;;;;;;;;;;5050051;28;20045;-70
2023/05/21 08:00:43;;;;;;;12.13;8.93;;;;;;;;;;5050651;28;20252;-70
2023/05/21 08:03:10;;;;;;;12.70;9.52;;;;;;;;;;5050346;28;20113;-70
2023/05/21 08:05:37;;;;;;;13.57;9.60;;;;;;;;;;5050539;28;20053;-68
2023/05/21 08:08:05;;;;;;;14.32;9.30;;;;;;;;;;5050277;28;20045;-68
2023/05/21 08:10:31;;;;;;;14.00;9.35;;;;;;;;;;5049982;28;20102;-68
2023/05/21 08:12:58;;;;;;;16.30;9.63;;;;;;;;;;5050611;28;20041;-68
2023/05/21 08:15:26;;;;;;;12.52;9.10;;;;;;;;;;5049864;28;20059;-68
2023/05/21 08:17:53;;;;;;;11.77;9.25;;;;;;;;;;5050991;28;20067;-68
2023/05/21 08:20:20;;;;;;;15.23;9.50;;;;;;;;;;5048897;28;20402;-69
2023/05/21 08:22:47;;;;;;;15.13;9.68;;;;;;;;;;5050395;28;20048;-67
2023/05/21 08:25:13;;;;;;;14.48;10.02;;;;;;;;;;5049739;28;20118;-68
2023/05/21 08:27:40;;;;;;;14.93;9.35;;;;;;;;;;5050137;28;20052;-69
2023/05/21 08:30:10;;;;;;;14.88;9.75;;;;;;;;;;5049498;28;20048;-68
2023/05/21 08:32:38;;;;;;;15.57;9.93;;;;;;;;;;5050128;28;20139;-69
2023/05/21 08:35:06;;;;;;;13.20;9.15;;;;;;;;;;5049409;28;20056;-69
2023/05/21 08:37:32;;;;;;;14.18;8.95;;;;;;;;;;5050215;28;20460;-69
2023/05/21 08:39:59;;;;;;;13.23;9.25;;;;;;;;;;5049573;28;20410;-69
2023/05/21 08:42:33;;;;;;;12.82;9.85;;;;;;;;;;5049953;28;20053;-69
2023/05/21 08:45:00;;;;;;;13.88;9.27;;;;;;;;;;5050070;28;20045;-69
2023/05/21 08:47:32;;;;;;;12.82;9.25;;;;;;;;;;5049540;28;20041;-68
2023/05/21 08:50:10;;;;;;;12.82;10.13;;;;;;;;;;5049776;28;20061;-68
2023/05/21 08:52:37;;;;;;;11.73;9.23;;;;;;;;;;5049732;28;20057;-68
2023/05/21 08:55:04;;;;;;;14.75;9.20;;;;;;;;;;5050252;28;20052;-68
2023/05/21 08:57:31;;;;;;;11.35;9.32;;;;;;;;;;5049564;28;20418;-69
2023/05/21 08:59:58;;;;;;;14.40;9.38;;;;;;;;;;5049523;28;20101;-69
2023/05/21 09:02:25;;;;;;;11.70;8.95;;;;;;;;;;5049511;28;20057;-68
2023/05/21 09:04:56;;;;;;;13.20;9.82;;;;;;;;;;5049717;28;20056;-68
2023/05/21 09:07:28;;;;;;;12.77;8.80;;;;;;;;;;5049380;28;20049;-68
2023/05/21 09:09:56;;;;;;;13.07;9.25;;;;;;;;;;5049439;28;20049;-69
2023/05/21 09:12:24;;;;;;;11.65;8.90;;;;;;;;;;5049322;28;20045;-69
2023/05/21 09:14:51;;;;;;;13.75;8.90;;;;;;;;;;5050008;28;20057;-69
2023/05/21 09:17:19;;;;;;;12.90;9.32;;;;;;;;;;5049259;28;20045;-69
2023/05/21 09:20:07;;;;;;;13.35;9.20;;;;;;;;;;5049585;28;20053;-69
2023/05/21 09:22:35;;;;;;;12.45;8.93;;;;;;;;;;5049136;28;20413;-69
2023/05/21 09:25:05;;;;;;;16.27;9.95;;;;;;;;;;5049508;28;20049;-68
2023/05/21 09:27:32;;;;;;;11.48;9.43;;;;;;;;;;5049209;28;20053;-68
2023/05/21 09:29:59;;;;;;;13.98;9.00;;;;;;;;;;5049651;28;20101;-68
2023/05/21 09:32:25;;;;;;;12.82;9.65;;;;;;;;;;5052383;28;20510;-69
2023/05/21 09:34:52;;;;;;;13.35;9.20;;;;;;;;;;5053417;28;20430;-68
2023/05/21 09:37:19;;;;;;;11.25;8.93;;;;;;;;;;5053093;28;20045;-68
2023/05/21 09:39:48;;;;;;;12.05;8.25;;;;;;;;;;5052995;28;20053;-68
2023/05/21 09:42:15;;;;;;;12.30;8.63;;;;;;;;;;5053548;28;20045;-68
2023/05/21 09:44:43;;;;;;;11.60;8.82;;;;;;;;;;5053022;28;20052;-69
2023/05/21 09:47:09;;;;;;;14.18;9.77;;;;;;;;;;5053267;28;20049;-69
2023/05/21 09:49:37;;;;;;;13.73;9.80;;;;;;;;;;5052607;28;20055;-68
2023/05/21 09:52:04;;;;;;;11.27;8.95;;;;;;;;;;5052871;28;20044;-68
2023/05/21 09:54:32;;;;;;;10.52;9.00;;;;;;;;;;5052321;28;20135;-68
2023/05/21 09:57:01;;;;;;;11.32;8.98;;;;;;;;;;5052886;28;20094;-68
2023/05/21 09:59:35;;;;;;;14.60;9.65;;;;;;;;;;5052491;28;20490;-69
2023/05/21 10:02:02;;;;;;;11.65;9.15;;;;;;;;;;5053115;28;20140;-68
2023/05/21 10:04:30;;;;;;;12.43;8.57;;;;;;;;;;5052827;28;20055;-68
2023/05/21 10:06:59;;;;;;;9.75;7.78;;;;;;;;;;5052952;28;20045;-69
2023/05/21 10:09:27;;;;;;;10.13;8.00;;;;;;;;;;5052713;28;20467;-68
2023/05/21 10:11:54;;;;;;;10.80;8.80;;;;;;;;;;5052939;28;20067;-68
2023/05/21 10:14:25;;;;;;;10.63;8.57;;;;;;;;;;5052420;28;20048;-68
2023/05/21 10:16:53;;;;;;;15.07;8.48;;;;;;;;;;5052256;28;20048;-67
2023/05/21 10:19:20;;;;;;;10.48;8.00;;;;;;;;;;5052688;28;20056;-67
2023/05/21 10:21:47;;;;;;;11.55;8.18;;;;;;;;;;5051818;28;20049;-68
2023/05/21 10:24:15;;;;;;;10.13;7.80;;;;;;;;;;5052628;28;20501;-67
2023/05/21 10:26:43;;;;;;;9.65;8.05;;;;;;;;;;5052158;28;20541;-67
2023/05/21 10:29:10;;;;;;;10.18;8.13;;;;;;;;;;5053219;28;20057;-67
2023/05/21 10:31:38;;;;;;;11.90;8.75;;;;;;;;;;5051995;28;20041;-67
2023/05/21 10:34:05;;;;;;;9.63;8.05;;;;;;;;;;5052489;28;20056;-67
2023/05/21 10:36:34;;;;;;;9.05;7.68;;;;;;;;;;5052197;28;20064;-68
2023/05/21 10:39:01;;;;;;;9.80;7.85;;;;;;;;;;5052478;28;20045;-67
2023/05/21 10:41:37;;;;;;;10.73;8.50;;;;;;;;;;5051471;28;20056;-67
2023/05/21 10:44:16;;;;;;;10.57;8.07;;;;;;;;;;5051962;28;20045;-68
2023/05/21 10:47:08;;;;;;;9.73;8.07;;;;;;;;;;5051552;28;20055;-67
2023/05/21 10:50:02;;;;;;;10.15;8.02;;;;;;;;;;5051854;28;20414;-68
2023/05/21 10:52:43;;;;;;;9.93;8.02;;;;;;;;;;5051724;28;20052;-68
2023/05/21 10:55:23;;;;;;;9.45;7.78;;;;;;;;;;5052242;28;20059;-67
2023/05/21 10:58:45;;;;;;;9.65;8.05;;;;;;;;;;5051459;28;20445;-68
2023/05/21 11:01:12;;;;;;;;;;;;;;;;;;5009869;28;20500;-67
2023/05/21 11:03:40;;;;;;;11.90;7.93;;;;;;;;;;5041030;28;19921;-68
2023/05/21 11:06:07;;;;;;;8.95;7.45;;;;;;;;;;5051854;28;20060;-68
2023/05/21 11:08:34;;;;;;;9.13;7.53;;;;;;;;;;5051452;28;20041;-68
2023/05/21 11:11:02;;;;;;;9.95;7.80;;;;;;;;;;5051485;28;20147;-67
2023/05/21 11:13:30;;;;;;;10.70;7.57;;;;;;;;;;5051143;28;20088;-68
2023/05/21 11:16:06;;;;;;;9.43;7.82;;;;;;;;;;5051426;28;20487;-68
2023/05/21 11:19:00;;;;;;;9.25;7.70;;;;;;;;;;5051448;28;20403;-68
2023/05/21 11:21:30;;;;;;;10.80;7.57;;;;;;;;;;5050960;28;20095;-68
2023/05/21 11:24:03;;;;;;;9.18;8.00;;;;;;;;;;5051012;28;20063;-67
2023/05/21 11:27:01;;;;;;;8.55;7.55;;;;;;;;;;5051528;28;20087;-68
2023/05/21 11:29:42;;;;;;;10.15;7.50;;;;;;;;;;5050704;28;20049;-68
2023/05/21 11:32:10;;;;;;;10.73;7.53;;;;;;;;;;5051028;28;20090;-67
2023/05/21 11:34:40;;;;;;;13.18;7.07;;;;;;;;;;5050599;28;20049;-68
2023/05/21 11:37:26;;;;;;;10.55;7.20;;;;;;;;;;5051201;28;20448;-68
2023/05/21 11:39:53;;;;;;;9.18;7.20;;;;;;;;;;5050531;28;20051;-68
2023/05/21 11:42:31;;;;;;;9.15;7.60;;;;;;;;;;5051087;28;20083;-68
2023/05/21 11:44:58;;;;;;;7.93;7.13;;;;;;;;;;5051033;28;20048;-67
2023/05/21 11:47:26;;;;;;;11.68;7.10;;;;;;;;;;5051091;28;20114;-67
2023/05/21 11:49:54;;;;;;;8.45;7.55;;;;;;;;;;5050527;28;20521;-68
2023/05/21 11:52:20;;;;;;;12.27;7.13;;;;;;;;;;5050755;28;20052;-68
2023/05/21 11:54:49;;;;;;;8.55;6.95;;;;;;;;;;5049952;28;20048;-68
2023/05/21 11:57:17;;;;;;;8.07;7.05;;;;;;;;;;5050717;28;20049;-67
2023/05/21 11:59:44;;;;;;;10.15;6.95;;;;;;;;;;5050057;28;20053;-67
2023/05/21 12:02:15;;;;;;;8.38;7.20;;;;;;;;;;5051107;28;20044;-67
2023/05/21 12:04:42;;;;;;;7.50;6.53;;;;;;;;;;5051336;28;20048;-67
2023/05/21 12:07:12;;;;;;;8.32;7.15;;;;;;;;;;5050738;28;20286;-67
2023/05/21 12:09:39;;;;;;;10.10;7.03;;;;;;;;;;5050171;28;20045;-67
2023/05/21 12:12:08;;;;;;;9.77;6.75;;;;;;;;;;5050589;28;20052;-67
2023/05/21 12:14:35;;;;;;;8.20;7.15;;;;;;;;;;5051319;28;20049;-67
2023/05/21 12:17:02;;;;;;;7.65;6.53;;;;;;;;;;5050389;28;20055;-68
2023/05/21 12:19:31;;;;;;;9.25;7.10;;;;;;;;;;5050736;28;20404;-67
2023/05/21 12:22:01;;;;;;;7.95;6.47;;;;;;;;;;5049850;28;20056;-67
2023/05/21 12:24:28;;;;;;;7.20;6.50;;;;;;;;;;5050808;28;20068;-68
2023/05/21 12:26:57;;;;;;;7.90;6.50;;;;;;;;;;5049838;28;20049;-67
2023/05/21 12:29:24;;;;;;;8.73;6.82;;;;;;;;;;5050327;28;20350;-67
2023/05/21 12:31:51;;;;;;;9.23;6.78;;;;;;;;;;5049703;28;20053;-67
2023/05/21 12:34:43;;;;;;;8.32;6.63;;;;;;;;;;5050485;28;20099;-67
2023/05/21 12:37:11;;;;;;;9.38;6.60;;;;;;;;;;5049536;28;20086;-67
2023/05/21 12:39:41;;;;;;;8.00;6.47;;;;;;;;;;5049907;28;20049;-67
2023/05/21 12:42:07;;;;;;;7.60;6.40;;;;;;;;;;5049609;28;20201;-67
2023/05/21 12:44:34;;;;;;;7.68;6.50;;;;;;;;;;5050353;28;20060;-67
2023/05/21 12:47:02;;;;;;;6.75;6.05;;;;;;;;;;5049509;28;20049;-68
2023/05/21 12:49:34;;;;;;;6.90;6.20;;;;;;;;;;5049704;28;20063;-68
2023/05/21 12:52:03;;;;;;;7.80;6.00;;;;;;;;;;5050206;28;20107;-68
2023/05/21 12:54:31;;;;;;;6.82;6.07;;;;;;;;;;5049776;28;20442;-68
2023/05/21 12:57:06;;;;;;;7.68;6.88;;;;;;;;;;5049719;28;20060;-68
2023/05/21 12:59:49;;;;;;;7.30;6.32;;;;;;;;;;5049005;28;20049;-68
2023/05/21 13:02:18;;;;;;;5.95;5.45;;;;;;;;;;5050073;28;20041;-68
2023/05/21 13:04:46;;;;;;;8.02;6.25;;;;;;;;;;5050046;28;20045;-68
2023/05/21 13:07:12;;;;;;;6.40;5.80;;;;;;;;;;5054204;28;20052;-68
2023/05/21 13:09:39;;;;;;;7.00;6.30;;;;;;;;;;5053568;28;20395;-68
2023/05/21 13:12:07;;;;;;;7.20;6.50;;;;;;;;;;5053637;28;20051;-68
2023/05/21 13:14:33;;;;;;;9.00;5.90;;;;;;;;;;5053221;28;20053;-68
2023/05/21 13:17:00;;;;;;;6.68;6.07;;;;;;;;;;5053797;28;20506;-68
2023/05/21 13:19:27;;;;;;;6.28;5.68;;;;;;;;;;5053209;28;20052;-67
2023/05/21 13:21:53;;;;;;;7.15;6.00;;;;;;;;;;5053588;28;20415;-68
2023/05/21 13:24:20;;;;;;;7.00;6.30;;;;;;;;;;5053370;28;20048;-68
2023/05/21 13:26:46;;;;;;;10.65;6.32;;;;;;;;;;5053642;28;20053;-68
2023/05/21 13:29:14;;;;;;;7.13;6.43;;;;;;;;;;5053163;28;20052;-67
2023/05/21 13:31:41;;;;;;;7.10;6.40;;;;;;;;;;5053237;28;20049;-67
2023/05/21 13:34:08;;;;;;;8.88;6.93;;;;;;;;;;5053659;28;20411;-68
2023/05/21 13:36:34;;;;;;;7.15;6.45;;;;;;;;;;5053413;28;20131;-62
2023/05/21 13:39:01;;;;;;;7.22;6.28;;;;;;;;;;5053703;28;20128;-62
2023/05/21 13:41:27;;;;;;;7.57;6.75;;;;;;;;;;5053455;28;20498;-62
2023/05/21 13:43:54;;;;;;;7.20;6.50;;;;;;;;;;5053756;28;20056;-62
2023/05/21 13:46:22;;;;;;;7.40;6.72;;;;;;;;;;5053067;28;20049;-62
2023/05/21 13:51:19;;;;;;;8.18;6.28;;;;;;;;;;5031587;28;20502;-71
2023/05/21 13:53:45;;;;;;;6.97;5.85;;;;;;;;;;5033340;28;20049;-70
2023/05/21 13:56:12;;;;;;;6.28;5.57;;;;;;;;;;5033909;28;20183;-71
2023/05/21 13:58:39;;;;;;;7.18;6.47;;;;;;;;;;5033820;28;20057;-70
2023/05/21 14:01:06;;;;;;;6.88;6.22;;;;;;;;;;5033528;28;20514;-72
2023/05/21 14:03:34;;;;;;;6.78;5.90;;;;;;;;;;5034403;28;20084;-71
2023/05/21 14:06:01;;;;;;;6.65;5.95;;;;;;;;;;5033670;28;20049;-72
2023/05/21 14:08:28;;;;;;;6.82;5.60;;;;;;;;;;5033856;28;20178;-72
2023/05/21 14:10:55;;;;;;;7.13;6.22;;;;;;;;;;5033862;28;20417;-72
2023/05/21 14:13:21;;;;;;;6.30;5.70;;;;;;;;;;5033176;28;20467;-72
2023/05/21 14:15:48;;;;;;;6.82;5.80;;;;;;;;;;5033636;28;20045;-72
2023/05/21 14:18:15;;;;;;;6.28;5.68;;;;;;;;;;5034485;28;20461;-73
2023/05/21 14:20:43;;;;;;;6.40;5.55;;;;;;;;;;5032591;28;20052;-71
2023/05/21 14:23:10;;;;;;;5.95;5.40;;;;;;;;;;5032893;28;20124;-72
2023/05/21 14:25:37;;;;;;;6.55;5.85;;;;;;;;;;5033068;28;20136;-72
2023/05/21 14:28:03;;;;;;;7.18;5.85;;;;;;;;;;5032885;28;20083;-72
2023/05/21 14:30:30;;;;;;;7.30;5.63;;;;;;;;;;5032818;28;20058;-71
2023/05/21 14:32:56;;;;;;;6.25;5.65;;;;;;;;;;5033080;28;20049;-72
2023/05/21 14:35:23;;;;;;;6.65;6.05;;;;;;;;;;5032448;28;20428;-72
2023/05/21 14:37:52;;;;;;;7.45;5.70;;;;;;;;;;5032424;28;20041;-71
2023/05/21 14:40:19;;;;;;;5.82;5.32;;;;;;;;;;5041295;22;20589;-69